DAAY

Mecheria Airport

Mecheria, Algeria
METAR DAAY 182000Z 03004KT 8000 FEW023 00/M01 Q1028
Observed Flight Rules
Dec-18 @ 20:00 UTC (26 minutes ago) Marginal Visual Flight Rules
Wind Visibility Clouds
30° at 4 knots 7,998 meters
  • Few at 2,300' AGL
Temperatures Readings
Current 0°C / 32°F
Dewpoint -1°C / 30°F
Humidity 93%
Altimeter 30.35" Hg
Pressure 1028 hPa
Elevation 1149
METAR DAAY 182000Z 03004KT 8000 FEW023 00/M01 Q1028
Observed Flight Rules
Dec-18 @ 20:00 UTC
(26 minutes ago)
MVFR
Wind Visibility
30° at 4 knots 7,998 meters
Clouds
  • Few at 2,300' AGL
Temperature Dewpoint
0°C / 32°F -1°C / 30°F
Humidity Altimeter Pressure
93% 30.35" Hg 1028 hPa